Aérodrome :
LOGIN :

S'inscrire | Disclaimer

   EN    FR    IT 

 










Légende :    VFR   VFR Marginal   IFR   IFR Intensif   IFR Très Intensif
Visi : 
Plafond : 
>= 8 km
>= 3000ft
5 à 8 km
1000 à 3000 ft
1500m à 5 km
500 à 1000 ft
800 à 1500m
200 à 500 ft
< 800m
< 200 ft
Symboles :   Orages  Brouillard  Fortes neiges  Fortes précipitations  Vent > 20 kt
SIGMETs :   Divers  Orages  Givrage  Turbulence  Onde Orograph.  Cendres Volcan.







- Altitude de l'aérodrome : 427 ft
- Code IATA : CIA


LIRA - Roma Ciampino

DERNIER METAR :
  • 172250Z 15005KT 9999 BKN035 11/07 Q1019

METARs EXPIRÉS :
  • 172220Z 16005KT 9999 FEW035 BKN045 11/07 Q1019
  • 172150Z 16004KT 9999 -DZ FEW030 BKN045 11/07 Q1019
  • 172120Z 17004KT 9999 SCT030 SCT040 11/07 Q1019
  • 172050Z 17005KT 9999 BKN030 11/07 Q1019
  • 172020Z 16004KT 9999 BKN030 11/07 Q1019

TAF COR TAF LIRA
Valide du 17 à 18h jusqu'au 18 à 18h UTC


172030Z 1718/1818 16010KT 9999 SCT020
TEMPO 1721/1812 RA
Pas de NOTAMs connus pour ce terrain.



MET'MAP, la Météo Aéronautique d'un coup d'oeil ! - Copyright ORBIFLY Décembre 2007 - Disclaimer

ORBIFLY MET'MAP TEAM :

Programmation & Développement : Alexandra Zaïnal
Conception & Développement : Baudouin d'Aumeries
Co-Programmation & Développement : Marc-Olivier Méhu
Soutien technique & logistique : Manuel Goepfert

Contact : metmap@orbifly.com




SOURCES & CREDITS :

   NOAA